West Olive, MI (49460)

7:16 PM EST on December 19, 2014 (GMT -0500)
Lake Front at M-45 Kiteboard Station | Change Station
CLOSE
Current Station
Personal Weather Station
Location: Grand Haven, MI
Elevation: 585 ft
Nearby Weather Stations

Elev 585 ft 42.97 °N, 86.22 °W | Updated 1 second ago

Clear
Clear
25.6 °F
Feels Like 26 °F
N
0.0
Wind Variable Wind from WNW
Gusts 1.0 mph

Today
High -- | Low -- °F
--% Chance of Precip.
Yesterday
High -- | Low -- °F
Precip. -- in
8:11 AM 5:12 PM
Waning Crescent, 5% visible
Pressure 30.35 in
Visibility 10.0 miles
Clouds Clear
Windchill 26 °F
Dew Point 19 °F
Humidity 76%
Rainfall 0.00 in
Snow Depth Not available.
UV 0 out of 12
Pollen .10 out of 12
Air Quality Not available.
Flu Activity Not available.
METAR KBIV 192353Z AUTO 00000KT 10SM CLR M03/M07 A3032 RMK AO2 SLP278 T10281067 10017 21033 53022

More Conditions Fewer Conditions

Pressure 30.35 in
Visibility 10.0 miles
Clouds Clear
Windchill 26 °F
Dew Point 19 °F
Humidity 76%
Rainfall 0.00 in
Snow Depth Not available.
UV 0 out of 12
Pollen .10 out of 12
Air Quality Not available.
Flu Activity Not available.
METAR KBIV 192353Z AUTO 00000KT 10SM CLR M03/M07 A3032 RMK AO2 SLP278 T10281067 10017 21033 53022

More Conditions Fewer Conditions

10-Day Weather Forecast

Almanac

Astronomy

Dec. 19, 2014 Rise Set
Actual Time
Civil Twilight
Nautical Twilight
Astronomical Twilight
Moon
Length of Visible Light
Length of Day
Tomorrow will be .
, % of the Moon is Illuminated

Today's Extremes

State Highs State Lows

Community

WunderPhotos

Upload Photos

1,779,084 photos uploaded!

WunderBlogs® & News

Nearby

Air Quality

  Air Quality AQ Index Pollutant
Not available.

Snow Depth

Station Depth Elevation

Earthquake Activity

City Distance Mag. Time & Date
Minimum magnitude displayed is 2.5.

Coastal Water Temperatures

Place Temperature

Nearby Weather Stations